Time;durP1;ratioP1;P1;durP2;ratioP2;P2;SDS_P1;SDS_P2;PMS_P1;PMS_P2;Temp;Humidity;BMP_temperature;BMP_pressure;BME280_temperature;BME280_humidity;BME280_pressure;Samples;Min_cycle;Max_cycle;Signal;HPM_P1;HPM_P2
2023/03/15 00:00:33;;;;;;;;;0.80;0.80;;;;;4.08;71.54;99375.59;5095262;28;8818;-59
2023/03/15 00:03:02;;;;;;;;;1.80;1.80;;;;;4.11;71.42;99375.44;5095502;28;8822;-60
2023/03/15 00:05:31;;;;;;;;;0.00;0.00;;;;;4.14;71.82;99369.97;5095242;28;8903;-59
2023/03/15 00:07:59;;;;;;;;;0.00;0.00;;;;;4.17;71.46;99369.75;5095360;28;8814;-60
2023/03/15 00:10:27;;;;;;;;;0.00;0.00;;;;;4.17;71.68;99362.72;5095852;28;8794;-59
2023/03/15 00:12:55;;;;;;;;;1.00;0.00;;;;;4.20;71.09;99359.03;5095748;28;8822;-60
2023/03/15 00:15:23;;;;;;;;;1.00;1.00;;;;;4.21;71.13;99356.31;5095592;28;9531;-58
2023/03/15 00:17:50;;;;;;;;;0.00;0.00;;;;;4.23;71.50;99354.44;5095914;28;8853;-58
2023/03/15 00:20:18;;;;;;;;;0.00;0.00;;;;;4.27;71.13;99363.81;5098305;28;8838;-58
2023/03/15 00:22:46;;;;;;;;;0.00;0.00;;;;;4.29;71.31;99380.41;5099042;28;9533;-58
2023/03/15 00:25:14;;;;;;;;;0.00;0.00;;;;;4.30;70.71;99397.88;5099118;28;8851;-60
2023/03/15 00:27:41;;;;;;;;;0.00;0.00;;;;;4.27;70.79;99384.06;5098872;28;8849;-58
2023/03/15 00:30:09;;;;;;;;;2.20;1.40;;;;;4.20;71.11;99388.03;5098732;28;8959;-57
2023/03/15 00:32:37;;;;;;;;;0.00;0.00;;;;;4.09;71.38;99388.69;5099075;28;8856;-58
2023/03/15 00:35:06;;;;;;;;;0.00;0.00;;;;;3.98;71.62;99404.28;5099218;28;8846;-58
2023/03/15 00:37:33;;;;;;;;;0.00;0.00;;;;;3.90;72.22;99397.81;5098500;28;8813;-57
2023/03/15 00:40:01;;;;;;;;;0.00;0.00;;;;;3.83;72.26;99407.03;5099346;28;8826;-58
2023/03/15 00:42:29;;;;;;;;;0.00;0.00;;;;;3.75;72.82;99399.59;5100018;28;8841;-60
2023/03/15 00:44:56;;;;;;;;;0.80;0.80;;;;;3.70;72.60;99411.34;5098388;28;8961;-60
2023/03/15 00:47:24;;;;;;;;;3.20;0.80;;;;;3.67;72.68;99411.53;5099352;28;8923;-60
2023/03/15 00:49:52;;;;;;;;;0.00;0.00;;;;;3.65;73.33;99416.06;5099031;28;8817;-60
2023/03/15 00:52:20;;;;;;;;;0.00;0.00;;;;;3.64;73.15;99416.97;5099124;28;8848;-58
2023/03/15 00:54:48;;;;;;;;;0.00;0.00;;;;;3.62;73.27;99421.50;5098526;28;8845;-59
2023/03/15 00:57:17;;;;;;;;;2.60;2.60;;;;;3.59;73.26;99415.56;5099086;28;8867;-59
2023/03/15 00:59:45;;;;;;;;;0.00;0.00;;;;;3.58;72.59;99416.50;5099556;28;9483;-58
2023/03/15 01:02:13;;;;;;;;;0.40;0.40;;;;;3.53;72.99;99414.16;5098748;28;8857;-61
2023/03/15 01:04:40;;;;;;;;;1.00;1.00;;;;;3.47;73.54;99418.94;5098574;28;8855;-61
2023/03/15 01:07:08;;;;;;;;;0.00;0.00;;;;;3.42;73.41;99413.94;5099088;28;8871;-57
2023/03/15 01:09:36;;;;;;;;;0.00;0.00;;;;;3.39;73.91;99411.50;5098816;28;8833;-60
2023/03/15 01:12:04;;;;;;;;;1.00;1.00;;;;;3.38;74.18;99403.69;5098645;28;8825;-57
2023/03/15 01:14:34;;;;;;;;;0.80;0.80;;;;;3.39;74.17;99411.50;5097367;28;8888;-59
2023/03/15 01:17:01;;;;;;;;;1.00;0.60;;;;;3.41;73.74;99409.59;5098517;28;8825;-57
2023/03/15 01:19:29;;;;;;;;;1.60;0.60;;;;;3.45;73.87;99415.53;5098091;28;8824;-58
2023/03/15 01:21:57;;;;;;;;;1.80;1.80;;;;;3.48;74.14;99410.94;5097465;28;8833;-57
2023/03/15 01:24:25;;;;;;;;;3.20;3.00;;;;;3.52;73.61;99407.19;5097491;28;8860;-58
2023/03/15 01:26:53;;;;;;;;;1.40;1.40;;;;;3.55;74.14;99412.25;5098195;28;8849;-59
2023/03/15 01:29:20;;;;;;;;;3.00;1.00;;;;;3.60;73.86;99419.88;5098326;28;8850;-58
2023/03/15 01:31:48;;;;;;;;;6.60;5.20;;;;;3.62;74.13;99418.88;5098059;28;8825;-58
2023/03/15 01:34:16;;;;;;;;;4.20;3.80;;;;;3.64;74.06;99427.50;5097979;28;8883;-60
2023/03/15 01:36:44;;;;;;;;;4.00;3.40;;;;;3.65;73.72;99423.97;5097877;28;8853;-58
2023/03/15 01:39:12;;;;;;;;;2.80;2.20;;;;;3.66;73.94;99427.41;5097825;28;8829;-59
2023/03/15 01:41:40;;;;;;;;;3.00;3.00;;;;;3.66;73.73;99435.31;5097995;28;8829;-60
2023/03/15 01:44:07;;;;;;;;;4.40;4.40;;;;;3.64;73.78;99437.19;5098431;28;8921;-59
2023/03/15 01:46:35;;;;;;;;;6.80;6.00;;;;;3.62;73.92;99425.94;5097927;28;8849;-60
2023/03/15 01:49:03;;;;;;;;;5.00;4.40;;;;;3.60;74.64;99435.69;5097909;28;8845;-58
2023/03/15 01:51:31;;;;;;;;;0.00;0.00;;;;;3.55;74.84;99441.22;5097887;28;8837;-58
2023/03/15 01:53:58;;;;;;;;;7.00;6.00;;;;;3.52;74.53;99437.91;5097874;28;8809;-59
2023/03/15 01:56:26;;;;;;;;;5.60;4.00;;;;;3.48;74.75;99439.88;5097963;28;8848;-61
2023/03/15 01:58:54;;;;;;;;;6.20;6.00;;;;;3.44;74.93;99437.53;5097760;28;8825;-58
2023/03/15 02:01:22;;;;;;;;;4.20;3.40;;;;;3.40;74.72;99439.50;5097569;28;8838;-58
2023/03/15 02:03:50;;;;;;;;;3.00;3.00;;;;;3.38;75.54;99435.25;5097192;28;8850;-60
2023/03/15 02:06:17;;;;;;;;;0.40;0.00;;;;;3.36;75.00;99440.63;5097516;28;9932;-60
2023/03/15 02:08:45;;;;;;;;;4.40;4.00;;;;;3.34;75.04;99428.50;5097611;28;8818;-60
2023/03/15 02:11:13;;;;;;;;;3.40;3.40;;;;;3.32;75.08;99444.34;5097986;28;8835;-60
2023/03/15 02:13:41;;;;;;;;;3.40;1.80;;;;;3.31;75.42;99436.53;5097793;28;8849;-59
2023/03/15 02:16:08;;;;;;;;;4.40;4.00;;;;;3.29;75.79;99441.91;5097748;28;8857;-60
2023/03/15 02:18:36;;;;;;;;;4.00;4.00;;;;;3.28;75.93;99445.50;5098026;28;9514;-57
2023/03/15 02:21:04;;;;;;;;;3.00;3.00;;;;;3.27;76.06;99449.03;5097418;28;8828;-57
2023/03/15 02:23:32;;;;;;;;;2.20;1.00;;;;;3.27;75.61;99443.75;5096830;28;8842;-57
2023/03/15 02:26:00;;;;;;;;;1.00;1.00;;;;;3.28;75.80;99448.13;5057237;28;8833;-60
2023/03/15 02:28:28;;;;;;;;;1.00;0.00;;;;;3.27;76.54;99443.75;5056930;28;8856;-59
2023/03/15 02:30:55;;;;;;;;;3.00;1.80;;;;;3.27;75.92;99443.75;5056894;28;8814;-60
2023/03/15 02:33:23;;;;;;;;;1.00;1.00;;;;;3.25;76.36;99445.66;5055665;28;8856;-60
2023/03/15 02:35:51;;;;;;;;;1.00;1.00;;;;;3.24;76.41;99456.28;5075370;28;8828;-60
2023/03/15 02:38:21;;;;;;;;;2.60;2.60;;;;;3.25;76.55;99457.97;5076454;28;8824;-60
2023/03/15 02:40:49;;;;;;;;;1.00;1.00;;;;;3.24;76.16;99462.38;5076587;28;8831;-59
2023/03/15 02:43:16;;;;;;;;;1.00;1.00;;;;;3.24;76.00;99465.00;5076760;28;8836;-59
2023/03/15 02:45:44;;;;;;;;;0.60;0.60;;;;;3.24;76.28;99459.75;5091277;28;8927;-58
2023/03/15 02:48:12;;;;;;;;;2.00;0.80;;;;;3.24;76.34;99462.38;5096063;28;8832;-61
2023/03/15 02:50:40;;;;;;;;;1.00;1.00;;;;;3.27;76.58;99467.44;5096866;28;8806;-60
2023/03/15 02:53:07;;;;;;;;;3.00;3.00;;;;;3.29;76.22;99470.00;5097056;28;9492;-60
2023/03/15 02:55:35;;;;;;;;;0.40;0.40;;;;;3.31;76.71;99466.34;5096446;28;8903;-58
2023/03/15 02:58:03;;;;;;;;;3.40;3.00;;;;;3.33;76.56;99472.34;5096657;28;8813;-57
2023/03/15 03:00:30;;;;;;;;;1.00;1.00;;;;;3.34;76.58;99474.03;5096942;28;8836;-59
2023/03/15 03:02:58;;;;;;;;;0.00;0.00;;;;;3.36;76.08;99480.09;5096965;28;8821;-58
2023/03/15 03:05:26;;;;;;;;;1.80;1.00;;;;;3.37;76.46;99487.03;5096367;28;8852;-60
2023/03/15 03:07:54;;;;;;;;;1.00;1.00;;;;;3.38;76.67;99478.22;5096784;28;8849;-57
2023/03/15 03:10:22;;;;;;;;;1.00;0.80;;;;;3.40;76.25;99486.84;5096361;28;8829;-58
2023/03/15 03:12:52;;;;;;;;;3.60;2.20;;;;;3.41;76.00;99483.28;5096030;28;8825;-56
2023/03/15 03:15:20;;;;;;;;;3.20;1.00;;;;;3.43;76.11;99486.69;5096081;28;8853;-58
2023/03/15 03:17:48;;;;;;;;;3.40;3.40;;;;;3.45;76.52;99495.34;5096211;28;9566;-58
2023/03/15 03:20:15;;;;;;;;;3.40;2.60;;;;;3.45;76.65;99500.59;5096326;28;8841;-57
2023/03/15 03:22:44;;;;;;;;;3.00;3.00;;;;;3.47;76.80;99503.16;5095819;28;8963;-58
2023/03/15 03:25:14;;;;;;;;;3.40;2.60;;;;;3.49;76.67;99507.38;5095898;28;8809;-59
2023/03/15 03:27:42;;;;;;;;;4.80;4.80;;;;;3.50;76.93;99508.22;5096005;28;8844;-60
2023/03/15 03:30:10;;;;;;;;;3.60;3.60;;;;;3.51;76.66;99502.88;5096676;28;9533;-60
2023/03/15 03:32:38;;;;;;;;;1.00;1.00;;;;;3.54;76.36;99509.75;5096186;28;8836;-58
2023/03/15 03:35:06;;;;;;;;;3.00;3.00;;;;;3.54;76.73;99505.31;5095384;28;8814;-60
2023/03/15 03:37:34;;;;;;;;;6.00;4.00;;;;;3.57;76.40;99505.13;5095971;28;8833;-60
2023/03/15 03:40:05;;;;;;;;;3.40;2.60;;;;;3.58;76.45;99519.16;5096335;28;8832;-60
2023/03/15 03:42:33;;;;;;;;;1.00;1.00;;;;;3.58;76.56;99525.28;5096705;28;8911;-60
2023/03/15 03:45:00;;;;;;;;;4.40;4.40;;;;;3.58;76.26;99535.81;5095883;28;8857;-60
2023/03/15 03:47:28;;;;;;;;;0.00;0.00;;;;;3.58;76.66;99540.22;5095976;28;8840;-60
2023/03/15 03:49:56;;;;;;;;;0.20;0.00;;;;;3.58;76.22;99556.00;5095944;28;8845;-60
2023/03/15 03:52:24;;;;;;;;;4.00;4.00;;;;;3.57;76.35;99541.97;5096306;28;8828;-60
2023/03/15 03:54:52;;;;;;;;;6.00;6.00;;;;;3.57;76.28;99546.41;5098416;28;8814;-59
2023/03/15 03:57:19;;;;;;;;;4.00;4.00;;;;;3.56;76.20;99557.88;5099993;28;8821;-59
2023/03/15 03:59:47;;;;;;;;;6.40;6.00;;;;;3.54;76.51;99555.31;5100129;28;8825;-59
2023/03/15 04:02:15;;;;;;;;;5.60;4.40;;;;;3.55;76.67;99564.91;5100038;28;8836;-59
2023/03/15 04:04:43;;;;;;;;;1.00;1.00;;;;;3.55;76.94;99571.97;5100021;28;8805;-59
2023/03/15 04:07:10;;;;;;;;;0.00;0.00;;;;;3.54;76.83;99578.19;5099934;28;8833;-60
2023/03/15 04:09:38;;;;;;;;;7.40;6.00;;;;;3.54;77.06;99575.56;5099826;28;8837;-58
2023/03/15 04:12:06;;;;;;;;;8.40;7.80;;;;;3.53;76.48;99577.31;5100141;28;8849;-59
2023/03/15 04:14:33;;;;;;;;;5.20;4.00;;;;;3.53;76.65;99576.47;5099729;28;8805;-60
2023/03/15 04:17:02;;;;;;;;;4.00;4.00;;;;;3.53;76.66;99585.22;5099884;28;8857;-60
2023/03/15 04:19:30;;;;;;;;;4.40;3.60;;;;;3.55;76.44;99579.88;5099906;28;8836;-60
2023/03/15 04:21:57;;;;;;;;;2.60;2.60;;;;;3.53;76.71;99590.47;5099426;28;8883;-60
2023/03/15 04:24:25;;;;;;;;;5.20;3.60;;;;;3.52;76.77;99596.69;5099536;28;8890;-60
2023/03/15 04:26:56;;;;;;;;;1.00;1.00;;;;;3.52;77.06;99590.56;5099550;28;8825;-59
2023/03/15 04:29:24;;;;;;;;;0.00;0.00;;;;;3.53;77.04;99602.78;5099608;28;8868;-60
2023/03/15 04:31:52;;;;;;;;;4.40;3.80;;;;;3.53;77.45;99603.63;5098865;28;8813;-59
2023/03/15 04:34:19;;;;;;;;;4.00;4.00;;;;;3.55;77.27;99593.88;5098802;28;8898;-61
2023/03/15 04:36:47;;;;;;;;;3.80;3.80;;;;;3.55;77.23;99600.94;5099173;28;8848;-60
2023/03/15 04:39:16;;;;;;;;;3.80;3.80;;;;;3.56;77.05;99603.44;5098905;28;8817;-60
2023/03/15 04:41:44;;;;;;;;;4.00;4.00;;;;;3.55;76.76;99614.91;5099156;28;8898;-60
2023/03/15 04:44:15;;;;;;;;;3.40;3.00;;;;;3.55;77.01;99612.28;5099618;28;8841;-60
2023/03/15 04:46:42;;;;;;;;;4.40;3.40;;;;;3.54;76.82;99609.75;5099027;28;8809;-60
2023/03/15 04:49:10;;;;;;;;;3.80;3.80;;;;;3.54;77.38;99609.75;5098967;28;8829;-58
2023/03/15 04:51:38;;;;;;;;;4.00;1.40;;;;;3.53;76.90;99624.69;5099093;28;8877;-59
2023/03/15 04:54:06;;;;;;;;;3.40;3.20;;;;;3.53;77.20;99619.44;5098627;28;8851;-60
2023/03/15 04:56:35;;;;;;;;;5.20;5.20;;;;;3.54;76.95;99628.19;5098141;28;8820;-60
2023/03/15 04:59:03;;;;;;;;;5.60;5.60;;;;;3.52;76.88;99622.13;5098221;28;8821;-60
2023/03/15 05:01:31;;;;;;;;;3.60;3.00;;;;;3.52;77.00;99627.41;5098849;28;8861;-60
2023/03/15 05:03:58;;;;;;;;;4.00;1.00;;;;;3.51;77.44;99629.19;5098860;28;8830;-58
2023/03/15 05:06:26;;;;;;;;;6.00;4.00;;;;;3.51;77.44;99628.34;5098075;28;8842;-61
2023/03/15 05:08:54;;;;;;;;;0.00;0.00;;;;;3.49;76.93;99632.84;5098656;28;8821;-58
2023/03/15 05:11:21;;;;;;;;;7.80;6.00;;;;;3.46;77.25;99625.97;5098422;28;8850;-59
2023/03/15 05:13:49;;;;;;;;;3.00;3.00;;;;;3.41;77.01;99637.69;5096859;28;8830;-61
2023/03/15 05:16:17;;;;;;;;;4.40;4.40;;;;;3.35;77.81;99632.75;5077593;28;8855;-60
2023/03/15 05:18:45;;;;;;;;;3.40;1.00;;;;;3.29;77.55;99644.47;5078139;28;8856;-60
2023/03/15 05:21:12;;;;;;;;;6.40;6.40;;;;;3.22;78.00;99637.84;5077468;28;8832;-59
2023/03/15 05:23:40;;;;;;;;;3.60;3.60;;;;;3.14;78.34;99647.97;5077682;28;8823;-59
2023/03/15 05:26:08;;;;;;;;;4.40;4.00;;;;;3.06;78.08;99646.66;5080597;28;8842;-58
2023/03/15 05:28:36;;;;;;;;;6.00;6.00;;;;;2.97;77.96;99655.91;5077695;28;8793;-57
2023/03/15 05:31:03;;;;;;;;;2.20;1.80;;;;;2.92;78.66;99657.06;5078057;28;8816;-59
2023/03/15 05:33:31;;;;;;;;;3.40;3.40;;;;;2.91;78.40;99660.63;5077309;28;8856;-60
2023/03/15 05:35:59;;;;;;;;;6.00;4.00;;;;;2.95;78.20;99667.44;5096394;28;8821;-60
2023/03/15 05:38:27;;;;;;;;;0.80;0.80;;;;;3.00;78.63;99671.50;5097157;28;8850;-60
2023/03/15 05:40:55;;;;;;;;;3.40;3.00;;;;;3.07;78.53;99677.28;5097607;28;8825;-57
2023/03/15 05:43:23;;;;;;;;;4.00;3.20;;;;;3.12;78.24;99688.41;5098099;28;8843;-59
2023/03/15 05:45:50;;;;;;;;;3.80;2.60;;;;;3.17;78.36;99692.50;5088551;28;8858;-60
2023/03/15 05:48:18;;;;;;;;;4.00;3.20;;;;;3.23;78.21;99702.69;5077482;28;8836;-59
2023/03/15 05:50:46;;;;;;;;;3.00;3.00;;;;;3.27;78.07;99704.19;5077726;28;8836;-60
2023/03/15 05:53:14;;;;;;;;;5.20;5.20;;;;;3.33;77.56;99710.94;5077589;28;8812;-59
2023/03/15 05:55:42;;;;;;;;;7.40;7.00;;;;;3.35;77.55;99720.47;5097196;28;8834;-59
2023/03/15 05:58:09;;;;;;;;;4.00;3.00;;;;;3.36;77.53;99730.03;5097648;28;9517;-60
2023/03/15 06:00:37;;;;;;;;;11.40;10.60;;;;;3.40;78.01;99728.94;5096765;28;8837;-60
2023/03/15 06:03:04;;;;;;;;;4.80;4.80;;;;;3.44;77.84;99729.63;5097023;28;8829;-58
2023/03/15 06:05:33;;;;;;;;;6.20;5.60;;;;;3.46;77.40;99733.88;5096394;28;8818;-60
2023/03/15 06:08:01;;;;;;;;;3.00;3.00;;;;;3.47;77.33;99732.94;5096554;28;8834;-59
2023/03/15 06:10:29;;;;;;;;;6.00;3.00;;;;;3.51;77.52;99733.63;5095902;28;8834;-59
2023/03/15 06:12:57;;;;;;;;;2.40;2.20;;;;;3.52;78.02;99744.06;5096869;28;9535;-60
2023/03/15 06:15:24;;;;;;;;;3.40;3.40;;;;;3.54;77.58;99746.63;5096488;28;8925;-60
2023/03/15 06:17:52;;;;;;;;;3.20;3.20;;;;;3.56;77.40;99755.28;5095024;28;8857;-60
2023/03/15 06:20:20;;;;;;;;;2.20;2.20;;;;;3.59;77.78;99757.72;5096480;28;8833;-60
2023/03/15 06:22:48;;;;;;;;;1.00;0.40;;;;;3.59;77.63;99758.59;5095640;28;8810;-60
2023/03/15 06:25:15;;;;;;;;;2.60;2.20;;;;;3.60;77.71;99752.41;5095636;28;8842;-60
2023/03/15 06:27:43;;;;;;;;;6.00;4.00;;;;;3.61;77.51;99755.84;5094719;28;8903;-60
2023/03/15 06:30:11;;;;;;;;;4.00;4.00;;;;;3.62;77.47;99760.22;5094337;28;8814;-60
2023/03/15 06:32:42;;;;;;;;;2.60;2.60;;;;;3.63;77.82;99761.91;5093503;28;8830;-60
2023/03/15 06:35:10;;;;;;;;;3.00;1.40;;;;;3.63;77.40;99773.28;5093399;28;8914;-60
2023/03/15 06:37:38;;;;;;;;;3.00;3.00;;;;;3.64;77.67;99768.88;5093149;28;8856;-61
2023/03/15 06:40:07;;;;;;;;;0.00;0.00;;;;;3.65;77.70;99767.94;5092325;28;8833;-60
2023/03/15 06:42:35;;;;;;;;;4.00;2.40;;;;;3.64;77.56;99769.69;5092447;28;9609;-59
2023/03/15 06:45:04;;;;;;;;;4.40;4.40;;;;;3.66;77.63;99772.25;5090849;28;8871;-59
2023/03/15 06:47:31;;;;;;;;;2.20;1.80;;;;;3.66;77.29;99775.75;5091508;28;8837;-58
2023/03/15 06:49:59;;;;;;;;;6.00;5.60;;;;;3.67;77.54;99774.81;5091597;28;8833;-60
2023/03/15 06:52:27;;;;;;;;;1.40;1.40;;;;;3.72;77.65;99782.47;5092256;28;9538;-60
2023/03/15 06:54:55;;;;;;;;;3.00;2.60;;;;;3.78;77.43;99782.13;5090926;28;8853;-60
2023/03/15 06:57:23;;;;;;;;;3.20;1.80;;;;;3.82;76.88;99792.41;5090780;28;8825;-60
2023/03/15 06:59:52;;;;;;;;;4.40;4.40;;;;;3.86;76.70;99793.94;5091153;28;8825;-60
2023/03/15 07:02:20;;;;;;;;;3.80;3.80;;;;;3.90;76.90;99793.66;5089681;28;8857;-59
2023/03/15 07:04:48;;;;;;;;;3.60;3.60;;;;;3.94;77.15;99789.94;5089246;28;8930;-60
2023/03/15 07:07:17;;;;;;;;;7.60;6.80;;;;;4.00;76.66;99794.03;5090656;28;8821;-57
2023/03/15 07:09:45;;;;;;;;;6.80;5.20;;;;;4.02;76.84;99803.53;5091491;28;8821;-61
2023/03/15 07:12:13;;;;;;;;;3.40;3.00;;;;;4.05;76.95;99803.34;5090531;28;8862;-59
2023/03/15 07:14:41;;;;;;;;;4.00;3.00;;;;;4.12;76.95;99810.00;5089217;28;8862;-59
2023/03/15 07:17:09;;;;;;;;;5.40;5.20;;;;;4.18;76.23;99817.56;5090113;28;8825;-61
2023/03/15 07:19:37;;;;;;;;;4.40;4.40;;;;;4.22;76.95;99815.59;5089205;28;8842;-60
2023/03/15 07:22:21;;;;;;;;;4.00;4.00;;;;;4.26;76.75;99817.97;5089969;28;8910;-60
2023/03/15 07:24:50;;;;;;;;;6.60;5.20;;;;;4.27;76.09;99822.31;5090318;28;8902;-60
2023/03/15 07:27:17;;;;;;;;;5.00;5.00;;;;;4.24;76.67;99825.13;5090812;28;8868;-60
2023/03/15 07:29:46;;;;;;;;;7.40;6.80;;;;;4.24;76.65;99838.31;5090982;28;8826;-60
2023/03/15 07:32:14;;;;;;;;;7.40;7.40;;;;;4.28;76.65;99838.97;5091653;28;8845;-60
2023/03/15 07:34:42;;;;;;;;;6.60;6.00;;;;;4.30;76.86;99837.97;5092176;28;8838;-60
2023/03/15 07:37:10;;;;;;;;;6.40;6.40;;;;;4.35;76.48;99842.97;5092083;28;9555;-60
2023/03/15 07:39:37;;;;;;;;;6.00;5.60;;;;;4.38;76.61;99842.78;5093176;28;8849;-60
2023/03/15 07:42:06;;;;;;;;;8.60;6.20;;;;;4.42;76.49;99844.34;5093166;28;8848;-60
2023/03/15 07:44:35;;;;;;;;;4.00;3.00;;;;;4.42;76.37;99853.06;5093482;28;8842;-60
2023/03/15 07:47:02;;;;;;;;;5.60;5.60;;;;;4.44;76.21;99863.53;5092596;28;8818;-60
2023/03/15 07:49:30;;;;;;;;;6.40;4.60;;;;;4.48;76.76;99865.09;5092285;28;8849;-60
2023/03/15 07:51:58;;;;;;;;;4.80;4.00;;;;;4.55;76.05;99871.69;5093133;28;8838;-60
2023/03/15 07:54:30;;;;;;;;;9.00;7.80;;;;;4.62;76.38;99879.19;5091497;28;8952;-60
2023/03/15 07:56:58;;;;;;;;;7.00;6.00;;;;;4.66;75.77;99874.56;5092094;28;9535;-59
2023/03/15 07:59:26;;;;;;;;;6.40;6.40;;;;;4.64;75.82;99872.03;5091636;28;8830;-58
2023/03/15 08:01:54;;;;;;;;;5.60;4.40;;;;;4.67;75.96;99879.78;5091873;28;8842;-59
2023/03/15 08:04:22;;;;;;;;;5.60;4.00;;;;;4.70;76.62;99881.38;5091506;28;8902;-58
2023/03/15 08:06:50;;;;;;;;;7.80;7.40;;;;;4.74;76.07;99882.91;5090753;28;8829;-59
2023/03/15 08:09:18;;;;;;;;;6.00;6.00;;;;;4.83;75.98;99883.22;5090795;28;9890;-59
2023/03/15 08:11:46;;;;;;;;;6.40;6.40;;;;;4.90;75.64;99891.63;5089696;28;8830;-60
2023/03/15 08:14:13;;;;;;;;;6.60;6.20;;;;;4.94;75.79;99893.16;5088870;28;8822;-60
2023/03/15 08:16:41;;;;;;;;;8.60;6.40;;;;;4.97;75.67;99906.16;5088589;28;9188;-60
2023/03/15 08:19:09;;;;;;;;;8.60;7.00;;;;;4.96;75.75;99909.75;5088807;28;8930;-60
2023/03/15 08:21:37;;;;;;;;;7.40;7.40;;;;;4.90;75.47;99915.38;5089648;28;8850;-60
2023/03/15 08:24:05;;;;;;;;;4.00;4.00;;;;;4.84;75.45;99916.59;5090886;28;8822;-59
2023/03/15 08:26:33;;;;;;;;;6.00;6.00;;;;;4.79;76.33;99925.69;5091168;28;8838;-60
2023/03/15 08:29:01;;;;;;;;;7.80;6.60;;;;;4.81;76.14;99927.31;5092474;28;8837;-60
2023/03/15 08:31:29;;;;;;;;;9.00;9.00;;;;;4.98;75.72;99934.25;5091633;28;8822;-60
2023/03/15 08:33:58;;;;;;;;;4.80;4.40;;;;;5.29;75.77;99929.75;5091515;28;8844;-59
2023/03/15 08:36:25;;;;;;;;;12.00;10.00;;;;;5.55;75.30;99931.69;5092184;28;8822;-59
2023/03/15 08:38:54;;;;;;;;;6.00;5.60;;;;;5.70;75.02;99935.25;5091267;28;9612;-60
2023/03/15 08:41:22;;;;;;;;;4.00;4.00;;;;;5.86;74.58;99928.13;5094926;28;8846;-59
2023/03/15 08:43:50;;;;;;;;;7.40;6.80;;;;;6.07;74.33;99934.75;5095276;28;8879;-60
2023/03/15 08:46:20;;;;;;;;;7.00;6.80;;;;;6.31;73.90;99934.03;5092842;28;8845;-59
2023/03/15 08:48:48;;;;;;;;;9.40;8.60;;;;;6.41;73.38;99940.47;5094237;28;8818;-60
2023/03/15 08:51:16;;;;;;;;;3.00;3.00;;;;;6.30;73.64;99948.22;5093562;28;8853;-59
2023/03/15 08:53:44;;;;;;;;;6.80;6.60;;;;;6.15;74.29;99953.63;5094683;28;8842;-60
2023/03/15 08:56:12;;;;;;;;;3.00;3.00;;;;;6.00;74.36;99957.19;5094867;28;9554;-59
2023/03/15 08:58:40;;;;;;;;;3.00;3.00;;;;;5.82;74.46;99966.22;5094119;28;8834;-59
2023/03/15 09:01:08;;;;;;;;;4.80;4.00;;;;;5.58;75.05;99962.38;5095008;28;8848;-60
2023/03/15 09:03:37;;;;;;;;;3.40;3.40;;;;;5.37;75.36;99979.47;5094723;28;8871;-57
2023/03/15 09:06:05;;;;;;;;;2.60;2.20;;;;;5.19;75.69;99978.75;5093938;28;8842;-59
2023/03/15 09:08:33;;;;;;;;;3.20;3.00;;;;;5.26;75.93;99981.88;5094101;28;8994;-59
2023/03/15 09:11:02;;;;;;;;;6.60;6.00;;;;;5.86;75.02;99983.59;5093172;28;8926;-59
2023/03/15 09:13:30;;;;;;;;;4.00;4.00;;;;;6.39;74.35;99975.91;5092912;28;8997;-58
2023/03/15 09:15:58;;;;;;;;;2.80;2.80;;;;;6.53;73.44;99968.78;5091906;28;9499;-57
2023/03/15 09:18:25;;;;;;;;;3.00;3.00;;;;;6.59;73.31;99967.56;5092184;28;8830;-59
2023/03/15 09:20:53;;;;;;;;;8.20;7.40;;;;;6.62;73.26;99975.31;5091762;28;9546;-59
2023/03/15 09:23:26;;;;;;;;;5.00;4.20;;;;;6.54;73.81;99974.94;5090722;28;8829;-58
2023/03/15 09:25:54;;;;;;;;;7.80;6.60;;;;;6.46;73.86;99974.56;5093199;28;8822;-60
2023/03/15 09:28:24;;;;;;;;;1.40;1.40;;;;;6.35;73.80;99982.31;5093354;28;8960;-58
2023/03/15 09:30:52;;;;;;;;;1.40;1.00;;;;;6.23;74.06;99988.38;5094674;28;8850;-57
2023/03/15 09:33:21;;;;;;;;;1.00;1.00;;;;;6.17;74.47;99988.72;5094718;28;8902;-59
2023/03/15 09:35:49;;;;;;;;;1.00;1.00;;;;;6.22;73.72;99986.66;5095044;28;8830;-57
2023/03/15 09:38:17;;;;;;;;;1.00;1.00;;;;;6.43;73.60;99990.59;5095277;28;8834;-60
2023/03/15 09:40:45;;;;;;;;;3.00;1.40;;;;;6.71;73.31;99999.41;5094755;28;9530;-60
2023/03/15 09:43:13;;;;;;;;;2.20;1.00;;;;;6.84;72.72;99996.81;5094199;28;8885;-60
2023/03/15 09:45:41;;;;;;;;;0.40;0.40;;;;;6.84;72.71;100007.41;5093367;28;9254;-59
2023/03/15 09:48:09;;;;;;;;;1.80;1.80;;;;;6.82;72.83;100009.31;5093131;28;8838;-60
2023/03/15 09:50:37;;;;;;;;;3.00;1.00;;;;;6.81;72.87;100015.56;5092901;28;8956;-60
2023/03/15 09:53:05;;;;;;;;;1.80;1.00;;;;;6.82;72.74;100019.88;5092302;28;8844;-60
2023/03/15 09:55:33;;;;;;;;;1.00;1.00;;;;;6.80;73.03;100013.81;5094133;28;9191;-60
2023/03/15 09:58:01;;;;;;;;;1.00;1.00;;;;;6.82;72.94;100019.88;5094671;28;8842;-60
2023/03/15 10:00:29;;;;;;;;;1.00;1.00;;;;;6.86;72.60;100024.03;5094315;28;8931;-59
2023/03/15 10:02:59;;;;;;;;;0.00;0.00;;;;;6.82;72.73;100015.44;5094039;28;8853;-59
2023/03/15 10:05:27;;;;;;;;;3.00;2.20;;;;;6.78;72.81;100023.66;5094937;28;8821;-60
2023/03/15 10:07:55;;;;;;;;;3.00;2.20;;;;;6.76;72.59;100020.28;5094892;28;8830;-59
2023/03/15 10:10:23;;;;;;;;;1.00;1.00;;;;;6.66;72.70;100020.00;5095041;28;9188;-60
2023/03/15 10:12:52;;;;;;;;;2.20;2.20;;;;;6.55;72.74;100029.53;5095316;28;8956;-60
2023/03/15 10:15:19;;;;;;;;;1.00;1.00;;;;;6.41;73.01;100030.41;5094685;28;9221;-60
2023/03/15 10:17:47;;;;;;;;;1.00;1.00;;;;;6.28;73.26;100024.16;5094231;28;8829;-60
2023/03/15 10:20:17;;;;;;;;;3.40;3.40;;;;;6.22;73.41;100023.69;5093708;28;8853;-60
2023/03/15 10:22:45;;;;;;;;;1.00;0.00;;;;;7.17;72.42;100023.75;5093266;28;8841;-59
2023/03/15 10:25:13;;;;;;;;;1.00;1.00;;;;;8.81;69.39;100011.53;5093117;28;8838;-60
2023/03/15 10:27:42;;;;;;;;;0.00;0.00;;;;;10.68;65.79;99985.63;5093213;28;8833;-58
2023/03/15 10:30:10;;;;;;;;;0.00;0.00;;;;;12.45;62.96;99991.03;5092183;28;8845;-60
2023/03/15 10:32:38;;;;;;;;;0.00;0.00;;;;;14.03;60.20;99980.13;5092449;28;8926;-60
2023/03/15 10:35:06;;;;;;;;;3.50;2.50;;;;;14.40;59.46;99981.06;5092721;28;8914;-60
2023/03/15 10:37:34;;;;;;;;;0.00;0.00;;;;;14.01;61.00;99994.66;5092896;28;8891;-60
2023/03/15 10:40:06;;;;;;;;;1.00;1.00;;;;;13.17;63.59;99999.78;5092046;28;8842;-60
2023/03/15 10:42:34;;;;;;;;;1.00;1.00;;;;;12.03;65.21;100001.88;5094319;28;8853;-60
2023/03/15 10:45:02;;;;;;;;;1.00;1.00;;;;;11.03;67.38;100011.16;5092098;28;8854;-60
2023/03/15 10:47:30;;;;;;;;;3.00;1.00;;;;;10.18;69.38;100018.84;5092771;28;8837;-58
2023/03/15 10:49:59;;;;;;;;;2.00;2.00;;;;;9.54;70.36;100022.00;5093090;28;8826;-60
2023/03/15 10:52:27;;;;;;;;;0.50;0.00;;;;;9.12;70.66;100032.25;5092644;28;8850;-60
2023/03/15 10:54:55;;;;;;;;;1.00;0.75;;;;;10.22;69.17;100020.34;5093426;28;8845;-60
2023/03/15 10:57:30;;;;;;;;;1.00;1.00;;;;;12.18;64.83;100011.25;5093931;28;8914;-60
2023/03/15 10:59:58;;;;;;;;;1.50;0.50;;;;;14.04;61.00;100005.09;5093661;28;8868;-60
2023/03/15 11:02:27;;;;;;;;;0.50;0.50;;;;;15.51;58.23;100001.47;5093183;28;8830;-60
2023/03/15 11:04:55;;;;;;;;;3.00;1.50;;;;;15.75;58.33;100002.56;5093233;28;8837;-60
2023/03/15 11:07:23;;;;;;;;;2.00;1.00;;;;;15.89;57.86;100006.53;5093922;28;8911;-60
2023/03/15 11:09:51;;;;;;;;;2.00;1.00;;;;;14.83;60.25;100026.06;5093796;28;8834;-58
2023/03/15 11:12:20;;;;;;;;;3.00;1.50;;;;;13.55;62.95;100026.63;5093429;28;8830;-60
2023/03/15 11:14:48;;;;;;;;;1.00;1.00;;;;;13.78;62.31;100023.56;5092965;28;8984;-57
2023/03/15 11:17:16;;;;;;;;;0.00;0.00;;;;;14.52;61.16;100022.81;5092616;28;8856;-61
2023/03/15 11:19:44;;;;;;;;;0.75;0.00;;;;;14.65;60.86;100020.63;5092181;28;8848;-61
2023/03/15 11:22:12;;;;;;;;;2.00;1.00;;;;;15.26;59.43;100013.72;5091919;28;8826;-60
2023/03/15 11:24:40;;;;;;;;;1.00;1.00;;;;;16.04;58.25;100013.91;5091907;28;9008;-60
2023/03/15 11:27:09;;;;;;;;;0.00;0.00;;;;;17.02;55.72;100009.91;5093353;28;8846;-59
2023/03/15 11:29:37;;;;;;;;;1.00;1.00;;;;;17.98;54.67;100005.66;5091691;28;8857;-61
2023/03/15 11:32:05;;;;;;;;;3.20;1.40;;;;;18.67;53.79;100011.38;5089245;28;8830;-61
2023/03/15 11:34:33;;;;;;;;;3.00;3.00;;;;;19.36;52.84;100007.97;5089700;28;8838;-61
2023/03/15 11:37:01;;;;;;;;;2.20;2.20;;;;;19.46;51.43;100017.56;5089312;28;8838;-60
2023/03/15 11:39:35;;;;;;;;;1.00;1.00;;;;;19.27;52.09;100023.38;5090512;28;8842;-61
2023/03/15 11:42:04;;;;;;;;;1.00;1.00;;;;;19.29;52.38;100021.34;5090541;28;8976;-61
2023/03/15 11:44:31;;;;;;;;;3.00;3.00;;;;;19.48;51.94;100033.56;5092195;28;8877;-60
2023/03/15 11:46:59;;;;;;;;;0.20;0.00;;;;;19.43;52.11;100039.50;5091548;28;8842;-60
2023/03/15 11:49:28;;;;;;;;;0.80;0.80;;;;;19.49;51.48;100040.69;5089976;28;9259;-60
2023/03/15 11:51:56;;;;;;;;;1.00;1.00;;;;;19.98;50.76;100042.91;5090104;28;8838;-60